Airfield :
LOGIN :

Register | Disclaimer

   EN    FR    IT 

 










Legend :    VFR   Marginal VFR   IFR   Intensive IFR   Very Intensive IFR
Visi :
Ceiling :
>= 8 km
>= 3000ft
5 to 8 km
1000 to 3000 ft
1500m to 5 km
500 to 1000 ft
800 to 1500m
200 to 500 ft
< 800m
< 200 ft
Symbols :   Thunderstorms  Fog  Heavy snow  Heavy precipitations  Wind > 20 kt
SIGMETs :     Misc.  Thunderstorms  Icing  Turbulence  Mountain Waves  Volcanic Ashes







- Airport Elevation : 128 ft


ETND - Diepholz

CURRENT METAR :
  • 230820Z 25004KT 4500 -DZRA BR FEW005 BKN008 BKN015 16/15 Q1013 GRN BLU TEMPO GRN

EXPIRED METARs :
  • 230808Z 25005KT 4500 -DZRA BR FEW005 BKN009 BKN015 16/15 Q1013 GRN BLU TEMPO GRN
  • 230745Z 27005KT 7000 -DZRA FEW005 BKN009 BKN015 16/15 Q1013 GRN BLU TEMPO GRN
  • 230720Z 28006KT 8000 -DZRA FEW007 BKN010 BKN025 16/14 Q1012 GRN BLU TEMPO GRN
  • 230700Z 27006KT 9999 FEW007 BKN010 BKN025 16/14 Q1012 GRN BLU TEMPO GRN
  • 230620Z 27008KT 9999 FEW007 BKN022 16/14 Q1012 WHT BLU TEMPO GRN
  • 230603Z 27010KT 8000 FEW006 BKN015 BKN022 16/15 Q1012 WHT BLU TEMPO GRN
  • 230542Z 27008KT 5000 -DZRA BR FEW006 BKN013 BKN022 16/15 Q1012 GRN BLU TEMPO GRN

TAF TAF ETND
Valid from the 23 at 08:00 until the 23 at 17:00 UTC


230720Z 2308/2317 27005KT 9999 NSW SCT007 BKN025
TEMPO 2308/2317 28008KT 5000 -RADZ BKN007
PROB30 2308/2312 30010KT 3000 RADZ BKN005 BY ETGL
No reported NOTAMs for that airfield.



MET'MAP, your aeronautical weather chart ! - Copyright ORBIFLY December 2007 - Disclaimer

ORBIFLY MET'MAP TEAM :

Programming & Development : Alexandra Zaïnal
Concept & Development : Baudouin d'Aumeries
Co-Development & Prog : Marc-Olivier Méhu
Technical & hardware support : Manuel Goepfert

Contact : metmap@orbifly.com




SOURCES & CREDITS :

   NOAA